Weather History for KPVC - January, 2014

Change the Weather History Date:

Wednesday, January 8, 2014

  Actual Average Record
Temperature  
Mean Temperature 17 °F -  
Max Temperature 24 °F 36 °F 53 °F (2007)
Min Temperature 10 °F 26 °F 6 °F (2015)
Degree Days  
Heating Degree Days 48    
Moisture  
Dew Point 4 °F    
Average Humidity 54    
Maximum Humidity 73    
Minimum Humidity 40    
Precipitation  
Precipitation 0.08 in - - ()
Sea Level Pressure  
Sea Level Pressure 30.39 in    
Wind  
Wind Speed 17 mph (West)    
Max Wind Speed 22 mph    
Max Gust Speed 31 mph    
Visibility 10 miles    
Events      
Averages and records for this station are not official NWS values.
T = Trace of Precipitation, MM = Missing Value Source: NWS Daily Summary

Daily Weather History Graph

Daily Weather History Graph

Search for Another Location

Airport or City:

Trip Planner

Search our weather history database for the weather conditions in past years. The results will help you decide how hot, cold, wet, or windy it might be!

Date:

Astronomy

Jan. 08, 2014 Rise Set
Actual Time 7:08 AM EST 4:26 PM EST
Civil Twilight 6:37 AM EST 4:57 PM EST
Nautical Twilight 6:02 AM EST 5:32 PM EST
Astronomical Twilight 5:28 AM EST 6:06 PM EST
Moon 11:20 AM EST (1/8) 12:07 AM EST (1/8)
Length of Visible Light 10h 20m
Length of Day
9h 17m
First Quarter, 56% of the Moon is Illuminated
Jan 8
First Quarter
Jan 15
Full
Jan 24
Last Quarter
Jan 30
New
Feb 6
First Quarter

Hourly Weather History & Observations

Time (EST) Temp. Windchill Dew Point Humidity Pressure Visibility Wind Dir Wind Speed Gust Speed Precip Events Conditions
12:15 AM 10.4 °F -8.2 °F -2.2 °F 57% 30.25 in 10.0 mi West 19.6 mph 26.5 mph N/A   Clear
12:35 AM 10.4 °F -7.7 °F -2.2 °F 57% 30.25 in 10.0 mi West 18.4 mph 28.8 mph N/A   Clear
12:55 AM 12.2 °F -4.3 °F -4.0 °F 48% 30.26 in 10.0 mi West 16.1 mph 27.6 mph N/A   Clear
1:15 AM 12.2 °F -6.7 °F -2.2 °F 53% 30.27 in 10.0 mi West 21.9 mph 31.1 mph N/A   Clear
1:35 AM 12.2 °F -5.3 °F -0.4 °F 57% 30.29 in 10.0 mi West 18.4 mph 31.1 mph N/A   Clear
1:55 AM 12.2 °F -5.3 °F -2.2 °F 53% 30.30 in 10.0 mi West 18.4 mph 28.8 mph N/A   Clear
2:15 AM 12.2 °F -5.8 °F -2.2 °F 53% 30.31 in 10.0 mi West 19.6 mph 28.8 mph N/A   Clear
2:35 AM 10.4 °F -7.7 °F -2.2 °F 57% 30.32 in 10.0 mi West 18.4 mph 31.1 mph N/A   Clear
2:55 AM 10.4 °F -8.2 °F -2.2 °F 57% 30.33 in 10.0 mi West 19.6 mph 26.5 mph N/A   Clear
3:15 AM 10.4 °F -7.7 °F -2.2 °F 57% 30.34 in 10.0 mi West 18.4 mph 28.8 mph N/A   Clear
3:35 AM 10.4 °F -8.2 °F -2.2 °F 57% 30.34 in 10.0 mi West 19.6 mph 28.8 mph N/A   Clear
3:55 AM 10.4 °F -8.6 °F -2.2 °F 57% 30.34 in 10.0 mi West 20.7 mph 27.6 mph N/A   Clear
4:15 AM 12.2 °F -5.3 °F -0.4 °F 57% 30.34 in 10.0 mi West 18.4 mph 26.5 mph N/A   Clear
4:35 AM 12.2 °F -6.3 °F -0.4 °F 57% 30.35 in 10.0 mi West 20.7 mph 27.6 mph N/A   Clear
4:55 AM 12.2 °F -4.8 °F -0.4 °F 57% 30.35 in 10.0 mi West 17.3 mph 26.5 mph 0.01 in   Clear
5:15 AM 12.2 °F -5.3 °F 1.4 °F 62% 30.36 in 10.0 mi West 18.4 mph 26.5 mph N/A   Clear
5:35 AM 12.2 °F -6.7 °F -0.4 °F 57% 30.36 in 10.0 mi West 21.9 mph 29.9 mph N/A   Clear
5:55 AM 12.2 °F -6.7 °F 1.4 °F 62% 30.37 in 10.0 mi West 21.9 mph 29.9 mph N/A   Clear
6:15 AM 12.2 °F -5.8 °F 3.2 °F 67% 30.39 in 10.0 mi West 19.6 mph 27.6 mph N/A   Clear
6:35 AM 12.2 °F -5.8 °F -0.4 °F 57% 30.39 in 10.0 mi West 19.6 mph 29.9 mph N/A   Clear
6:55 AM 12.2 °F -5.3 °F 3.2 °F 67% 30.38 in 10.0 mi West 18.4 mph 29.9 mph N/A   Clear
7:15 AM 14.0 °F -3.0 °F 6.8 °F 73% 30.39 in 10.0 mi West 18.4 mph 26.5 mph N/A   Clear
7:35 AM 14.0 °F -3.4 °F 3.2 °F 62% 30.40 in 10.0 mi West 19.6 mph 26.5 mph N/A   Clear
7:55 AM 15.8 °F -0.6 °F 3.2 °F 58% 30.41 in 10.0 mi West 18.4 mph 26.5 mph N/A   Clear
8:15 AM 15.8 °F 0.3 °F 6.8 °F 68% 30.42 in 10.0 mi West 16.1 mph 25.3 mph N/A   Clear
8:35 AM 15.8 °F -0.6 °F 3.2 °F 58% 30.43 in 10.0 mi West 18.4 mph 24.2 mph N/A   Clear
8:55 AM 15.8 °F -0.6 °F 8.6 °F 73% 30.44 in 10.0 mi West 18.4 mph 24.2 mph N/A   Clear
9:15 AM 17.6 °F 1.7 °F 5.0 °F 58% 30.44 in 10.0 mi West 18.4 mph 25.3 mph 0.01 in   Clear
9:35 AM 17.6 °F 2.7 °F 5.0 °F 58% 30.44 in 10.0 mi West 16.1 mph 24.2 mph 0.02 in   Clear
9:55 AM 17.6 °F 3.2 °F 8.6 °F 68% 30.45 in 10.0 mi West 15.0 mph 24.2 mph 0.02 in   Clear
10:15 AM 17.6 °F 2.2 °F 6.8 °F 63% 30.45 in 10.0 mi West 17.3 mph 21.9 mph N/A   Clear
10:35 AM 19.4 °F 5.0 °F 10.4 °F 68% 30.46 in 10.0 mi West 16.1 mph 19.6 mph N/A   Clear
10:55 AM 19.4 °F 5.5 °F 6.8 °F 58% 30.45 in 10.0 mi West 15.0 mph 21.9 mph N/A   Clear
11:15 AM 19.4 °F 5.0 °F 6.8 °F 58% 30.44 in 10.0 mi West 16.1 mph 23.0 mph N/A   Clear
11:35 AM 21.2 °F 7.3 °F 6.8 °F 54% 30.43 in 10.0 mi West 16.1 mph 23.0 mph N/A   Clear
11:55 AM 21.2 °F 7.3 °F 6.8 °F 54% 30.41 in 10.0 mi West 16.1 mph 24.2 mph N/A   Clear
12:15 PM 21.2 °F 8.3 °F 6.8 °F 54% 30.40 in 10.0 mi West 13.8 mph 20.7 mph N/A   Clear
12:35 PM 23.0 °F 10.6 °F 6.8 °F 50% 30.39 in 10.0 mi WSW 13.8 mph 17.3 mph N/A   Clear
12:55 PM 23.0 °F 11.1 °F 6.8 °F 50% 30.39 in 10.0 mi WSW 12.7 mph - 0.01 in   Clear
1:15 PM 23.0 °F 10.6 °F 6.8 °F 50% 30.38 in 10.0 mi West 13.8 mph 19.6 mph N/A   Clear
1:35 PM 24.8 °F 12.4 °F 5.0 °F 43% 30.38 in 10.0 mi West 15.0 mph 19.6 mph 0.01 in   Clear
1:55 PM 24.8 °F 13.4 °F 5.0 °F 43% 30.39 in 10.0 mi West 12.7 mph - 0.01 in   Clear
2:15 PM 24.8 °F 12.9 °F 5.0 °F 43% 30.38 in 10.0 mi WSW 13.8 mph 21.9 mph N/A   Clear
2:35 PM 24.8 °F 12.4 °F 3.2 °F 40% 30.39 in 10.0 mi WSW 15.0 mph 20.7 mph N/A   Clear
2:55 PM 24.8 °F 13.4 °F 3.2 °F 40% 30.39 in 10.0 mi WSW 12.7 mph 18.4 mph N/A   Clear
3:15 PM 23.0 °F 11.1 °F 3.2 °F 43% 30.39 in 10.0 mi WSW 12.7 mph - N/A   Clear
3:35 PM 23.0 °F 12.4 °F 5.0 °F 46% 30.39 in 10.0 mi West 10.4 mph 17.3 mph N/A   Clear
3:55 PM 23.0 °F 12.4 °F 3.2 °F 43% 30.39 in 10.0 mi SW 10.4 mph - 0.01 in   Clear
4:15 PM 21.2 °F 8.9 °F 3.2 °F 46% 30.39 in 10.0 mi WSW 12.7 mph - N/A   Clear
4:35 PM 21.2 °F 7.3 °F 5.0 °F 50% 30.40 in 10.0 mi WSW 16.1 mph - N/A   Clear
4:55 PM 21.2 °F 10.1 °F 3.2 °F 46% 30.40 in 10.0 mi WSW 10.4 mph - N/A   Clear
5:15 PM 21.2 °F 7.8 °F 6.8 °F 54% 30.41 in 10.0 mi WSW 15.0 mph 20.7 mph N/A   Clear
5:35 PM 21.2 °F 7.8 °F 5.0 °F 50% 30.41 in 10.0 mi WSW 15.0 mph 19.6 mph N/A   Clear
5:55 PM 21.2 °F 7.3 °F 6.8 °F 54% 30.42 in 10.0 mi WSW 16.1 mph - N/A   Clear
6:15 PM 21.2 °F 8.9 °F 6.8 °F 54% 30.43 in 10.0 mi WSW 12.7 mph 17.3 mph 0.01 in   Clear
6:35 PM 21.2 °F 11.7 °F 5.0 °F 50% 30.42 in 10.0 mi West 8.1 mph 18.4 mph 0.01 in   Clear
6:55 PM 21.2 °F 8.3 °F 6.8 °F 54% 30.42 in 10.0 mi West 13.8 mph - 0.01 in   Clear
7:15 PM 21.2 °F 7.8 °F 3.2 °F 46% 30.43 in 10.0 mi West 15.0 mph - N/A   Clear
7:35 PM 21.2 °F 7.8 °F 5.0 °F 50% 30.43 in 10.0 mi West 15.0 mph 20.7 mph 0.01 in   Clear
7:55 PM 21.2 °F 6.8 °F 5.0 °F 50% 30.45 in 10.0 mi West 17.3 mph 23.0 mph 0.01 in   Clear
8:15 PM 21.2 °F 6.4 °F 3.2 °F 46% 30.46 in 10.0 mi West 18.4 mph 24.2 mph N/A   Clear
8:35 PM 21.2 °F 6.8 °F 5.0 °F 50% 30.45 in 10.0 mi West 17.3 mph 23.0 mph N/A   Clear
8:55 PM 21.2 °F 7.8 °F 3.2 °F 46% 30.45 in 10.0 mi West 15.0 mph 20.7 mph N/A   Clear
9:15 PM 21.2 °F 6.4 °F 5.0 °F 50% 30.45 in 10.0 mi WNW 18.4 mph 23.0 mph N/A   Clear
9:35 PM 21.2 °F 8.3 °F 5.0 °F 50% 30.44 in 10.0 mi West 13.8 mph 21.9 mph N/A   Scattered Clouds
9:55 PM 21.2 °F 6.8 °F 5.0 °F 50% 30.43 in 10.0 mi West 17.3 mph - N/A   Overcast
10:15 PM 21.2 °F 7.3 °F 6.8 °F 54% 30.44 in 10.0 mi West 16.1 mph 19.6 mph N/A   Overcast
10:35 PM 21.2 °F 7.3 °F 5.0 °F 50% 30.44 in 10.0 mi West 16.1 mph 21.9 mph N/A   Overcast
10:55 PM 21.2 °F 7.8 °F 6.8 °F 54% 30.43 in 10.0 mi West 15.0 mph 23.0 mph N/A   Mostly Cloudy
11:15 PM 21.2 °F 7.8 °F 6.8 °F 54% 30.43 in 10.0 mi West 15.0 mph 20.7 mph N/A   Mostly Cloudy
11:35 PM 21.2 °F 8.3 °F 8.6 °F 58% 30.43 in 10.0 mi WNW 13.8 mph 19.6 mph N/A   Overcast
11:55 PM 21.2 °F 7.3 °F 8.6 °F 58% 30.44 in 10.0 mi WNW 16.1 mph 20.7 mph N/A   Scattered Clouds